sensor_id;sensor_type;location;lat;lon;timestamp;pressure;altitude;pressure_sealevel;temperature;humidity
21300;BME280;10809;49.476;11.016;2023-06-22T00:02:09;98355.72;;;22.25;53.57
21300;BME280;10809;49.476;11.016;2023-06-22T00:04:49;98361.44;;;22.22;53.90
21300;BME280;10809;49.476;11.016;2023-06-22T00:07:20;98377.63;;;22.22;53.64
21300;BME280;10809;49.476;11.016;2023-06-22T00:09:50;98368.81;;;22.20;54.04
21300;BME280;10809;49.476;11.016;2023-06-22T00:12:21;98368.81;;;22.20;53.76
21300;BME280;10809;49.476;11.016;2023-06-22T00:14:51;98377.06;;;22.18;53.94
21300;BME280;10809;49.476;11.016;2023-06-22T00:17:25;98367.41;;;22.16;53.92
21300;BME280;10809;49.476;11.016;2023-06-22T00:19:55;98372.00;;;22.15;53.87
21300;BME280;10809;49.476;11.016;2023-06-22T00:22:28;98380.25;;;22.14;54.03
21300;BME280;10809;49.476;11.016;2023-06-22T00:25:25;98381.53;;;22.10;53.94
21300;BME280;10809;49.476;11.016;2023-06-22T00:27:56;98388.94;;;22.08;54.12
21300;BME280;10809;49.476;11.016;2023-06-22T00:30:26;98389.25;;;22.05;53.85
21300;BME280;10809;49.476;11.016;2023-06-22T00:33:00;98395.94;;;22.01;53.88
21300;BME280;10809;49.476;11.016;2023-06-22T00:35:31;98400.66;;;21.99;54.20
21300;BME280;10809;49.476;11.016;2023-06-22T00:38:04;98409.88;;;21.96;54.25
21300;BME280;10809;49.476;11.016;2023-06-22T00:40:35;98421.84;;;21.94;54.16
21300;BME280;10809;49.476;11.016;2023-06-22T00:43:05;98414.06;;;21.91;54.12
21300;BME280;10809;49.476;11.016;2023-06-22T00:45:36;98423.31;;;21.88;54.30
21300;BME280;10809;49.476;11.016;2023-06-22T00:48:07;98423.63;;;21.85;54.43
21300;BME280;10809;49.476;11.016;2023-06-22T00:50:41;98427.44;;;21.83;54.23
21300;BME280;10809;49.476;11.016;2023-06-22T00:53:12;98424.91;;;21.81;54.54
21300;BME280;10809;49.476;11.016;2023-06-22T00:55:44;98417.97;;;21.79;54.33
21300;BME280;10809;49.476;11.016;2023-06-22T00:58:22;98409.34;;;21.75;54.48
21300;BME280;10809;49.476;11.016;2023-06-22T01:00:52;98405.13;;;21.73;54.71
21300;BME280;10809;49.476;11.016;2023-06-22T01:03:26;98415.19;;;21.71;54.41
21300;BME280;10809;49.476;11.016;2023-06-22T01:06:03;98417.22;;;21.69;54.77
21300;BME280;10809;49.476;11.016;2023-06-22T01:08:49;98414.69;;;21.67;54.25
21300;BME280;10809;49.476;11.016;2023-06-22T01:11:50;98395.22;;;21.64;54.52
21300;BME280;10809;49.476;11.016;2023-06-22T01:14:41;98388.97;;;21.63;54.64
21300;BME280;10809;49.476;11.016;2023-06-22T01:17:15;98374.78;;;21.61;54.76
21300;BME280;10809;49.476;11.016;2023-06-22T01:19:54;98367.00;;;21.58;54.64
21300;BME280;10809;49.476;11.016;2023-06-22T01:22:30;98349.16;;;21.57;54.97
21300;BME280;10809;49.476;11.016;2023-06-22T01:30:16;98325.22;;;21.54;54.82
21300;BME280;10809;49.476;11.016;2023-06-22T01:32:49;98320.97;;;21.52;55.14
21300;BME280;10809;49.476;11.016;2023-06-22T01:35:21;98325.66;;;21.49;54.84
21300;BME280;10809;49.476;11.016;2023-06-22T01:37:52;98323.13;;;21.48;54.99
21300;BME280;10809;49.476;11.016;2023-06-22T01:40:26;98340.44;;;21.45;55.05
21300;BME280;10809;49.476;11.016;2023-06-22T01:42:59;98346.16;;;21.42;55.15
21300;BME280;10809;49.476;11.016;2023-06-22T01:45:40;98348.44;;;21.37;55.21
21300;BME280;10809;49.476;11.016;2023-06-22T01:48:10;98345.91;;;21.36;55.29
21300;BME280;10809;49.476;11.016;2023-06-22T01:50:42;98341.81;;;21.32;55.03
21300;BME280;10809;49.476;11.016;2023-06-22T01:53:15;98336.75;;;21.29;55.32
21300;BME280;10809;49.476;11.016;2023-06-22T01:55:45;98341.41;;;21.27;55.08
21300;BME280;10809;49.476;11.016;2023-06-22T01:58:16;98347.09;;;21.24;55.21
21300;BME280;10809;49.476;11.016;2023-06-22T02:01:09;98341.16;;;21.20;55.15
21300;BME280;10809;49.476;11.016;2023-06-22T02:04:02;98346.69;;;21.19;55.21
21300;BME280;10809;49.476;11.016;2023-06-22T02:06:37;98355.94;;;21.16;55.60
21300;BME280;10809;49.476;11.016;2023-06-22T02:09:15;98361.47;;;21.15;55.60
21300;BME280;10809;49.476;11.016;2023-06-22T02:11:47;98366.31;;;21.11;55.49
21300;BME280;10809;49.476;11.016;2023-06-22T02:14:19;98384.31;;;21.11;55.89
21300;BME280;10809;49.476;11.016;2023-06-22T02:16:51;98384.44;;;21.09;55.79
21300;BME280;10809;49.476;11.016;2023-06-22T02:19:24;98376.53;;;21.08;55.64
21300;BME280;10809;49.476;11.016;2023-06-22T02:21:57;98365.91;;;21.06;55.78
21300;BME280;10809;49.476;11.016;2023-06-22T02:24:27;98367.91;;;21.04;55.85
21300;BME280;10809;49.476;11.016;2023-06-22T02:27:02;98373.44;;;21.03;55.95
21300;BME280;10809;49.476;11.016;2023-06-22T02:29:36;98368.22;;;21.01;55.78
21300;BME280;10809;49.476;11.016;2023-06-22T02:32:07;98366.50;;;21.00;55.99
21300;BME280;10809;49.476;11.016;2023-06-22T02:34:37;98363.13;;;20.98;55.82
21300;BME280;10809;49.476;11.016;2023-06-22T02:37:11;98372.31;;;20.96;55.90
21300;BME280;10809;49.476;11.016;2023-06-22T02:39:44;98388.59;;;20.94;56.06
21300;BME280;10809;49.476;11.016;2023-06-22T02:42:14;98412.00;;;20.94;56.18
21300;BME280;10809;49.476;11.016;2023-06-22T02:44:46;98447.16;;;20.92;56.16
21300;BME280;10809;49.476;11.016;2023-06-22T02:47:17;98479.59;;;20.91;56.12
21300;BME280;10809;49.476;11.016;2023-06-22T02:49:47;98494.91;;;20.90;56.16
21300;BME280;10809;49.476;11.016;2023-06-22T02:52:18;98493.34;;;20.88;56.33
21300;BME280;10809;49.476;11.016;2023-06-22T02:54:48;98495.19;;;20.87;56.29
21300;BME280;10809;49.476;11.016;2023-06-22T02:57:19;98494.47;;;20.85;56.48
21300;BME280;10809;49.476;11.016;2023-06-22T02:59:49;98493.66;;;20.85;56.64
21300;BME280;10809;49.476;11.016;2023-06-22T03:02:20;98492.78;;;20.84;56.47
21300;BME280;10809;49.476;11.016;2023-06-22T03:04:52;98497.44;;;20.82;56.61
21300;BME280;10809;49.476;11.016;2023-06-22T03:07:24;98497.44;;;20.82;56.51
21300;BME280;10809;49.476;11.016;2023-06-22T03:09:56;98497.44;;;20.82;56.53
21300;BME280;10809;49.476;11.016;2023-06-22T03:12:26;98488.69;;;20.80;56.73
21300;BME280;10809;49.476;11.016;2023-06-22T03:14:58;98470.00;;;20.79;56.61
21300;BME280;10809;49.476;11.016;2023-06-22T03:17:29;98463.75;;;20.78;56.57
21300;BME280;10809;49.476;11.016;2023-06-22T03:20:00;98470.97;;;20.78;56.70
21300;BME280;10809;49.476;11.016;2023-06-22T03:22:31;98469.13;;;20.78;56.87
21300;BME280;10809;49.476;11.016;2023-06-22T03:25:02;98462.91;;;20.78;57.07
21300;BME280;10809;49.476;11.016;2023-06-22T03:27:32;98472.84;;;20.77;56.91
21300;BME280;10809;49.476;11.016;2023-06-22T03:30:04;98454.81;;;20.78;56.93
21300;BME280;10809;49.476;11.016;2023-06-22T03:32:36;98440.53;;;20.77;56.88
21300;BME280;10809;49.476;11.016;2023-06-22T03:35:07;98451.31;;;20.77;57.00
21300;BME280;10809;49.476;11.016;2023-06-22T03:37:40;98435.28;;;20.76;57.13
21300;BME280;10809;49.476;11.016;2023-06-22T03:40:25;98431.75;;;20.75;56.82
21300;BME280;10809;49.476;11.016;2023-06-22T03:42:59;98443.50;;;20.74;57.01
21300;BME280;10809;49.476;11.016;2023-06-22T03:45:29;98436.41;;;20.73;57.04
21300;BME280;10809;49.476;11.016;2023-06-22T03:48:00;98419.44;;;20.73;57.07
21300;BME280;10809;49.476;11.016;2023-06-22T03:50:34;98434.72;;;20.72;56.91
21300;BME280;10809;49.476;11.016;2023-06-22T03:53:05;98432.03;;;20.72;57.01
21300;BME280;10809;49.476;11.016;2023-06-22T03:55:48;98407.09;;;20.70;57.10
21300;BME280;10809;49.476;11.016;2023-06-22T03:58:21;98404.41;;;20.70;57.05
21300;BME280;10809;49.476;11.016;2023-06-22T04:00:57;98408.09;;;20.69;56.96
21300;BME280;10809;49.476;11.016;2023-06-22T04:03:31;98402.88;;;20.68;57.24
21300;BME280;10809;49.476;11.016;2023-06-22T04:06:04;98402.00;;;20.67;57.25
21300;BME280;10809;49.476;11.016;2023-06-22T04:08:35;98386.72;;;20.68;57.35
21300;BME280;10809;49.476;11.016;2023-06-22T04:11:14;98375.09;;;20.67;57.40
21300;BME280;10809;49.476;11.016;2023-06-22T04:13:45;98387.44;;;20.70;57.28
21300;BME280;10809;49.476;11.016;2023-06-22T04:16:15;98402.88;;;20.68;57.49
21300;BME280;10809;49.476;11.016;2023-06-22T04:18:46;98383.88;;;20.69;57.26
21300;BME280;10809;49.476;11.016;2023-06-22T04:21:16;98362.34;;;20.69;57.50
21300;BME280;10809;49.476;11.016;2023-06-22T04:23:47;98356.13;;;20.69;57.47
21300;BME280;10809;49.476;11.016;2023-06-22T04:26:21;98366.72;;;20.70;57.68
21300;BME280;10809;49.476;11.016;2023-06-22T04:28:54;98373.97;;;20.70;57.65
21300;BME280;10809;49.476;11.016;2023-06-22T04:31:28;98359.53;;;20.71;57.64
21300;BME280;10809;49.476;11.016;2023-06-22T04:34:07;98346.06;;;20.71;57.73
21300;BME280;10809;49.476;11.016;2023-06-22T04:36:44;98338.84;;;20.71;57.56
21300;BME280;10809;49.476;11.016;2023-06-22T04:39:15;98340.53;;;20.72;57.48
21300;BME280;10809;49.476;11.016;2023-06-22T04:41:45;98340.53;;;20.72;57.73
21300;BME280;10809;49.476;11.016;2023-06-22T04:44:18;98331.44;;;20.73;57.41
21300;BME280;10809;49.476;11.016;2023-06-22T04:47:01;98336.84;;;20.73;57.62
21300;BME280;10809;49.476;11.016;2023-06-22T04:49:37;98327.78;;;20.74;57.51
21300;BME280;10809;49.476;11.016;2023-06-22T04:52:09;98317.84;;;20.75;57.45
21300;BME280;10809;49.476;11.016;2023-06-22T04:54:40;98321.41;;;20.75;57.84
21300;BME280;10809;49.476;11.016;2023-06-22T04:57:21;98325.78;;;20.76;57.86
21300;BME280;10809;49.476;11.016;2023-06-22T05:00:02;98333.53;;;20.79;57.87
21300;BME280;10809;49.476;11.016;2023-06-22T05:02:46;98329.72;;;20.82;57.76
21300;BME280;10809;49.476;11.016;2023-06-22T05:05:16;98324.19;;;20.83;57.94
21300;BME280;10809;49.476;11.016;2023-06-22T05:07:50;98320.50;;;20.84;57.75
21300;BME280;10809;49.476;11.016;2023-06-22T05:10:23;98331.97;;;20.86;57.74
21300;BME280;10809;49.476;11.016;2023-06-22T05:12:59;98330.81;;;20.89;57.69
21300;BME280;10809;49.476;11.016;2023-06-22T05:15:33;98332.34;;;20.91;57.83
21300;BME280;10809;49.476;11.016;2023-06-22T05:18:07;98326.69;;;20.94;57.97
21300;BME280;10809;49.476;11.016;2023-06-22T05:20:37;98322.03;;;20.96;58.07
21300;BME280;10809;49.476;11.016;2023-06-22T05:23:08;98325.44;;;20.98;57.73
21300;BME280;10809;49.476;11.016;2023-06-22T05:25:38;98320.72;;;21.00;58.19
21300;BME280;10809;49.476;11.016;2023-06-22T05:28:09;98321.44;;;21.02;58.06
21300;BME280;10809;49.476;11.016;2023-06-22T05:30:44;98322.13;;;21.04;57.93
21300;BME280;10809;49.476;11.016;2023-06-22T05:33:14;98316.59;;;21.06;58.03
21300;BME280;10809;49.476;11.016;2023-06-22T05:35:45;98326.22;;;21.08;58.25
21300;BME280;10809;49.476;11.016;2023-06-22T05:38:15;98330.44;;;21.11;58.11
21300;BME280;10809;49.476;11.016;2023-06-22T05:40:46;98331.00;;;21.14;57.96
21300;BME280;10809;49.476;11.016;2023-06-22T05:43:16;98328.00;;;21.17;58.12
21300;BME280;10809;49.476;11.016;2023-06-22T05:45:46;98322.31;;;21.20;58.29
21300;BME280;10809;49.476;11.016;2023-06-22T05:48:17;98317.78;;;21.21;58.20
21300;BME280;10809;49.476;11.016;2023-06-22T05:50:47;98318.34;;;21.24;58.16
21300;BME280;10809;49.476;11.016;2023-06-22T05:53:17;98308.94;;;21.28;58.24
21300;BME280;10809;49.476;11.016;2023-06-22T05:55:51;98308.50;;;21.33;58.59
21300;BME280;10809;49.476;11.016;2023-06-22T05:58:22;98299.09;;;21.37;58.37
21300;BME280;10809;49.476;11.016;2023-06-22T06:00:52;98311.13;;;21.42;58.65
21300;BME280;10809;49.476;11.016;2023-06-22T06:03:22;98302.44;;;21.48;58.80
21300;BME280;10809;49.476;11.016;2023-06-22T06:05:53;98310.72;;;21.55;58.88
21300;BME280;10809;49.476;11.016;2023-06-22T06:08:23;98311.81;;;21.62;58.82
21300;BME280;10809;49.476;11.016;2023-06-22T06:10:53;98310.06;;;21.71;59.17
21300;BME280;10809;49.476;11.016;2023-06-22T06:13:25;98303.81;;;21.88;59.85
21300;BME280;10809;49.476;11.016;2023-06-22T06:15:56;98303.53;;;22.16;60.73
21300;BME280;10809;49.476;11.016;2023-06-22T06:18:27;98299.91;;;22.51;61.04
21300;BME280;10809;49.476;11.016;2023-06-22T06:20:57;98297.41;;;22.91;60.87
21300;BME280;10809;49.476;11.016;2023-06-22T06:23:27;98304.69;;;23.32;60.71
21300;BME280;10809;49.476;11.016;2023-06-22T06:26:01;98290.09;;;23.75;60.20
21300;BME280;10809;49.476;11.016;2023-06-22T06:28:31;98277.72;;;24.12;59.57
21300;BME280;10809;49.476;11.016;2023-06-22T06:31:05;98281.56;;;24.50;58.87
21300;BME280;10809;49.476;11.016;2023-06-22T06:33:37;98270.47;;;24.83;58.51
21300;BME280;10809;49.476;11.016;2023-06-22T06:36:08;98277.63;;;25.15;57.56
21300;BME280;10809;49.476;11.016;2023-06-22T06:38:38;98276.78;;;25.45;56.49
21300;BME280;10809;49.476;11.016;2023-06-22T06:41:08;98273.75;;;25.71;56.20
21300;BME280;10809;49.476;11.016;2023-06-22T06:43:39;98270.72;;;25.88;55.69
21300;BME280;10809;49.476;11.016;2023-06-22T06:46:09;98269.06;;;26.02;55.31
21300;BME280;10809;49.476;11.016;2023-06-22T06:48:40;98267.19;;;26.10;55.00
21300;BME280;10809;49.476;11.016;2023-06-22T06:51:19;98259.97;;;26.17;54.89
21300;BME280;10809;49.476;11.016;2023-06-22T06:53:50;98264.00;;;26.21;54.87
21300;BME280;10809;49.476;11.016;2023-06-22T06:56:20;98249.72;;;26.27;54.45
21300;BME280;10809;49.476;11.016;2023-06-22T06:58:51;98238.47;;;26.30;54.67
21300;BME280;10809;49.476;11.016;2023-06-22T07:01:24;98244.34;;;26.34;54.87
21300;BME280;10809;49.476;11.016;2023-06-22T07:03:55;98241.44;;;26.35;54.60
21300;BME280;10809;49.476;11.016;2023-06-22T07:06:25;98241.09;;;26.38;54.38
21300;BME280;10809;49.476;11.016;2023-06-22T07:08:59;98234.44;;;26.41;54.44
21300;BME280;10809;49.476;11.016;2023-06-22T07:11:30;98237.81;;;26.43;54.32
21300;BME280;10809;49.476;11.016;2023-06-22T07:14:00;98236.78;;;26.44;53.95
21300;BME280;10809;49.476;11.016;2023-06-22T07:16:31;98232.19;;;26.44;54.22
21300;BME280;10809;49.476;11.016;2023-06-22T07:19:02;98233.03;;;26.45;54.09
21300;BME280;10809;49.476;11.016;2023-06-22T07:21:33;98239.97;;;26.48;53.89
21300;BME280;10809;49.476;11.016;2023-06-22T07:24:04;98240.44;;;26.51;54.05
21300;BME280;10809;49.476;11.016;2023-06-22T07:26:35;98225.44;;;26.55;53.67
21300;BME280;10809;49.476;11.016;2023-06-22T07:29:06;98228.44;;;26.60;53.76
21300;BME280;10809;49.476;11.016;2023-06-22T07:31:36;98228.09;;;26.63;53.77
21300;BME280;10809;49.476;11.016;2023-06-22T07:34:07;98229.41;;;26.67;53.88
21300;BME280;10809;49.476;11.016;2023-06-22T07:36:37;98227.81;;;26.73;53.52
21300;BME280;10809;49.476;11.016;2023-06-22T07:39:07;98225.34;;;26.78;53.26
21300;BME280;10809;49.476;11.016;2023-06-22T07:41:39;98221.91;;;26.84;53.40
21300;BME280;10809;49.476;11.016;2023-06-22T07:44:10;98217.78;;;26.88;53.03
21300;BME280;10809;49.476;11.016;2023-06-22T07:46:41;98227.03;;;26.93;53.51
21300;BME280;10809;49.476;11.016;2023-06-22T07:49:11;98220.00;;;26.99;52.88
21300;BME280;10809;49.476;11.016;2023-06-22T07:51:42;98215.69;;;27.04;53.27
21300;BME280;10809;49.476;11.016;2023-06-22T07:54:12;98221.00;;;27.12;53.07
21300;BME280;10809;49.476;11.016;2023-06-22T07:56:43;98215.47;;;27.20;52.89
21300;BME280;10809;49.476;11.016;2023-06-22T07:59:19;98214.16;;;27.31;52.95
21300;BME280;10809;49.476;11.016;2023-06-22T08:01:53;98215.72;;;27.40;52.78
21300;BME280;10809;49.476;11.016;2023-06-22T08:04:23;98211.63;;;27.50;52.50
21300;BME280;10809;49.476;11.016;2023-06-22T08:06:54;98212.13;;;27.60;52.74
21300;BME280;10809;49.476;11.016;2023-06-22T08:09:24;98207.19;;;27.70;52.34
21300;BME280;10809;49.476;11.016;2023-06-22T08:11:55;98205.03;;;27.80;52.04
21300;BME280;10809;49.476;11.016;2023-06-22T08:14:27;98212.00;;;27.89;52.25
21300;BME280;10809;49.476;11.016;2023-06-22T08:16:57;98212.50;;;27.99;51.81
21300;BME280;10809;49.476;11.016;2023-06-22T08:19:30;98209.03;;;28.12;51.45
21300;BME280;10809;49.476;11.016;2023-06-22T08:22:04;98200.97;;;28.25;51.49
21300;BME280;10809;49.476;11.016;2023-06-22T08:24:35;98198.56;;;28.37;50.93
21300;BME280;10809;49.476;11.016;2023-06-22T08:27:07;98194.63;;;28.46;50.41
21300;BME280;10809;49.476;11.016;2023-06-22T08:29:45;98195.31;;;28.54;50.77
21300;BME280;10809;49.476;11.016;2023-06-22T08:32:15;98186.97;;;28.62;50.25
21300;BME280;10809;49.476;11.016;2023-06-22T08:34:46;98192.06;;;28.72;50.00
21300;BME280;10809;49.476;11.016;2023-06-22T08:37:16;98195.44;;;28.80;49.96
21300;BME280;10809;49.476;11.016;2023-06-22T08:39:46;98199.50;;;28.91;49.45
21300;BME280;10809;49.476;11.016;2023-06-22T08:42:17;98198.28;;;29.00;48.65
21300;BME280;10809;49.476;11.016;2023-06-22T08:44:47;98206.28;;;29.08;48.20
21300;BME280;10809;49.476;11.016;2023-06-22T08:47:18;98205.47;;;29.14;47.95
21300;BME280;10809;49.476;11.016;2023-06-22T08:49:48;98198.53;;;29.18;47.85
21300;BME280;10809;49.476;11.016;2023-06-22T08:52:19;98198.53;;;29.18;47.41
21300;BME280;10809;49.476;11.016;2023-06-22T08:54:50;98192.25;;;29.17;47.09
21300;BME280;10809;49.476;11.016;2023-06-22T08:57:21;98184.28;;;29.16;47.28
21300;BME280;10809;49.476;11.016;2023-06-22T08:59:52;98185.31;;;29.15;47.18
21300;BME280;10809;49.476;11.016;2023-06-22T09:02:32;98189.75;;;29.16;47.94
21300;BME280;10809;49.476;11.016;2023-06-22T09:05:09;98184.91;;;29.18;47.27
21300;BME280;10809;49.476;11.016;2023-06-22T09:07:41;98176.31;;;29.21;46.91
21300;BME280;10809;49.476;11.016;2023-06-22T09:10:18;98172.13;;;29.25;47.71
21300;BME280;10809;49.476;11.016;2023-06-22T09:12:48;98172.13;;;29.31;46.71
21300;BME280;10809;49.476;11.016;2023-06-22T09:15:19;98170.31;;;29.38;47.14
21300;BME280;10809;49.476;11.016;2023-06-22T09:17:49;98155.22;;;29.49;46.47
21300;BME280;10809;49.476;11.016;2023-06-22T09:20:19;98150.16;;;29.59;46.37
21300;BME280;10809;49.476;11.016;2023-06-22T09:22:50;98145.75;;;29.71;46.32
21300;BME280;10809;49.476;11.016;2023-06-22T09:25:20;98144.50;;;29.80;46.15
21300;BME280;10809;49.476;11.016;2023-06-22T09:27:51;98136.75;;;29.90;46.01
21300;BME280;10809;49.476;11.016;2023-06-22T09:30:21;98126.44;;;29.99;45.58
21300;BME280;10809;49.476;11.016;2023-06-22T09:32:52;98114.44;;;30.06;45.31
21300;BME280;10809;49.476;11.016;2023-06-22T09:35:25;98113.81;;;30.17;45.23
21300;BME280;10809;49.476;11.016;2023-06-22T09:37:56;98118.00;;;30.26;45.09
21300;BME280;10809;49.476;11.016;2023-06-22T09:40:26;98121.75;;;30.32;44.31
21300;BME280;10809;49.476;11.016;2023-06-22T09:42:56;98127.63;;;30.35;43.85
21300;BME280;10809;49.476;11.016;2023-06-22T09:45:30;98126.78;;;30.35;44.17
21300;BME280;10809;49.476;11.016;2023-06-22T09:48:02;98116.06;;;30.33;44.10
21300;BME280;10809;49.476;11.016;2023-06-22T09:50:32;98109.78;;;30.33;43.34
21300;BME280;10809;49.476;11.016;2023-06-22T09:53:02;98098.00;;;30.32;43.74
21300;BME280;10809;49.476;11.016;2023-06-22T09:55:33;98095.25;;;30.32;43.50
21300;BME280;10809;49.476;11.016;2023-06-22T09:58:03;98090.66;;;30.33;43.76
21300;BME280;10809;49.476;11.016;2023-06-22T10:00:33;98087.69;;;30.34;43.64
21300;BME280;10809;49.476;11.016;2023-06-22T10:03:07;98095.47;;;30.37;43.58
21300;BME280;10809;49.476;11.016;2023-06-22T10:05:37;98097.81;;;30.40;43.48
21300;BME280;10809;49.476;11.016;2023-06-22T10:08:08;98092.53;;;30.45;43.24
21300;BME280;10809;49.476;11.016;2023-06-22T10:10:46;98084.94;;;30.47;43.34
21300;BME280;10809;49.476;11.016;2023-06-22T10:13:22;98087.25;;;30.50;43.46
21300;BME280;10809;49.476;11.016;2023-06-22T10:15:58;98091.44;;;30.53;43.23
21300;BME280;10809;49.476;11.016;2023-06-22T10:18:29;98091.84;;;30.56;43.06
21300;BME280;10809;49.476;11.016;2023-06-22T10:21:00;98102.34;;;30.59;43.03
21300;BME280;10809;49.476;11.016;2023-06-22T10:23:31;98105.28;;;30.64;42.89
21300;BME280;10809;49.476;11.016;2023-06-22T10:26:07;98106.50;;;30.68;43.12
21300;BME280;10809;49.476;11.016;2023-06-22T10:28:41;98112.38;;;30.72;42.77
21300;BME280;10809;49.476;11.016;2023-06-22T10:31:11;98113.41;;;30.77;42.47
21300;BME280;10809;49.476;11.016;2023-06-22T10:33:42;98113.81;;;30.81;42.44
21300;BME280;10809;49.476;11.016;2023-06-22T10:36:14;98111.50;;;30.84;42.16
21300;BME280;10809;49.476;11.016;2023-06-22T10:38:47;98118.41;;;30.87;42.22
21300;BME280;10809;49.476;11.016;2023-06-22T10:41:18;98122.66;;;30.89;41.78
21300;BME280;10809;49.476;11.016;2023-06-22T10:43:56;98120.31;;;30.93;42.16
21300;BME280;10809;49.476;11.016;2023-06-22T10:46:27;98118.19;;;30.95;42.02
21300;BME280;10809;49.476;11.016;2023-06-22T10:49:04;98127.41;;;31.00;42.23
21300;BME280;10809;49.476;11.016;2023-06-22T10:51:34;98121.50;;;31.03;41.70
21300;BME280;10809;49.476;11.016;2023-06-22T10:54:04;98118.94;;;31.08;41.14
21300;BME280;10809;49.476;11.016;2023-06-22T10:56:38;98102.94;;;31.12;41.49
21300;BME280;10809;49.476;11.016;2023-06-22T10:59:08;98106.06;;;31.15;41.54
21300;BME280;10809;49.476;11.016;2023-06-22T11:01:38;98094.22;;;31.21;41.53
21300;BME280;10809;49.476;11.016;2023-06-22T11:04:09;98094.41;;;31.26;41.08
21300;BME280;10809;49.476;11.016;2023-06-22T11:06:39;98079.22;;;31.30;40.99
21300;BME280;10809;49.476;11.016;2023-06-22T11:09:09;98085.72;;;31.36;40.81
21300;BME280;10809;49.476;11.016;2023-06-22T11:11:40;98073.28;;;31.40;40.62
21300;BME280;10809;49.476;11.016;2023-06-22T11:14:10;98072.63;;;31.45;40.41
21300;BME280;10809;49.476;11.016;2023-06-22T11:16:41;98068.63;;;31.47;40.34
21300;BME280;10809;49.476;11.016;2023-06-22T11:19:12;98065.22;;;31.52;40.33
21300;BME280;10809;49.476;11.016;2023-06-22T11:21:42;98051.06;;;31.55;40.35
21300;BME280;10809;49.476;11.016;2023-06-22T11:24:13;98051.22;;;31.60;40.20
21300;BME280;10809;49.476;11.016;2023-06-22T11:26:43;98049.50;;;31.65;40.09
21300;BME280;10809;49.476;11.016;2023-06-22T11:29:14;98046.06;;;31.70;40.37
21300;BME280;10809;49.476;11.016;2023-06-22T11:31:54;98046.00;;;31.76;39.99
21300;BME280;10809;49.476;11.016;2023-06-22T11:34:24;98046.16;;;31.81;39.72
21300;BME280;10809;49.476;11.016;2023-06-22T11:36:55;98041.69;;;31.87;39.32
21300;BME280;10809;49.476;11.016;2023-06-22T11:39:25;98040.81;;;31.93;39.29
21300;BME280;10809;49.476;11.016;2023-06-22T11:41:55;98037.63;;;31.96;39.35
21300;BME280;10809;49.476;11.016;2023-06-22T11:44:26;98032.28;;;32.01;39.40
21300;BME280;10809;49.476;11.016;2023-06-22T11:46:56;98025.06;;;32.06;39.32
21300;BME280;10809;49.476;11.016;2023-06-22T11:49:27;98012.34;;;32.12;39.29
21300;BME280;10809;49.476;11.016;2023-06-22T11:51:58;98010.56;;;32.17;39.37
21300;BME280;10809;49.476;11.016;2023-06-22T11:54:28;98009.66;;;32.23;39.42
21300;BME280;10809;49.476;11.016;2023-06-22T11:56:59;98005.19;;;32.29;38.58
21300;BME280;10809;49.476;11.016;2023-06-22T11:59:29;97999.00;;;32.33;38.23
21300;BME280;10809;49.476;11.016;2023-06-22T12:02:00;98001.91;;;32.38;38.34
21300;BME280;10809;49.476;11.016;2023-06-22T12:04:40;97994.06;;;32.42;38.80
21300;BME280;10809;49.476;11.016;2023-06-22T12:07:13;98000.78;;;32.46;38.50
21300;BME280;10809;49.476;11.016;2023-06-22T12:09:44;98003.06;;;32.49;38.29
21300;BME280;10809;49.476;11.016;2023-06-22T12:12:14;97985.28;;;32.51;38.07
21300;BME280;10809;49.476;11.016;2023-06-22T12:14:45;97977.44;;;32.55;38.10
21300;BME280;10809;49.476;11.016;2023-06-22T12:17:15;97976.75;;;32.59;38.05
21300;BME280;10809;49.476;11.016;2023-06-22T12:19:46;97962.34;;;32.64;38.05
21300;BME280;10809;49.476;11.016;2023-06-22T12:22:16;97953.97;;;32.70;37.92
21300;BME280;10809;49.476;11.016;2023-06-22T12:24:47;97948.25;;;32.72;37.85
21300;BME280;10809;49.476;11.016;2023-06-22T12:27:18;97946.13;;;32.74;37.78
21300;BME280;10809;49.476;11.016;2023-06-22T12:29:48;97936.81;;;32.75;37.88
21300;BME280;10809;49.476;11.016;2023-06-22T12:32:19;97929.19;;;32.77;37.49
21300;BME280;10809;49.476;11.016;2023-06-22T12:34:49;97921.97;;;32.82;37.44
21300;BME280;10809;49.476;11.016;2023-06-22T12:37:20;97923.19;;;32.87;37.55
21300;BME280;10809;49.476;11.016;2023-06-22T12:39:50;97918.03;;;32.90;37.56
21300;BME280;10809;49.476;11.016;2023-06-22T12:42:20;97917.56;;;32.93;37.65
21300;BME280;10809;49.476;11.016;2023-06-22T12:44:51;97917.13;;;32.96;37.07
21300;BME280;10809;49.476;11.016;2023-06-22T12:47:21;97917.22;;;33.01;37.49
21300;BME280;10809;49.476;11.016;2023-06-22T12:49:52;97914.59;;;33.06;37.27
21300;BME280;10809;49.476;11.016;2023-06-22T12:52:22;97917.25;;;33.13;37.20
21300;BME280;10809;49.476;11.016;2023-06-22T12:54:53;97914.59;;;33.18;36.99
21300;BME280;10809;49.476;11.016;2023-06-22T12:57:24;97919.13;;;33.24;36.86
21300;BME280;10809;49.476;11.016;2023-06-22T12:59:55;97905.78;;;33.27;36.84
21300;BME280;10809;49.476;11.016;2023-06-22T13:02:26;97910.19;;;33.28;36.45
21300;BME280;10809;49.476;11.016;2023-06-22T13:04:56;97915.66;;;33.28;36.10
21300;BME280;10809;49.476;11.016;2023-06-22T13:07:27;97925.84;;;33.28;35.75
21300;BME280;10809;49.476;11.016;2023-06-22T13:09:57;97926.09;;;33.26;36.22
21300;BME280;10809;49.476;11.016;2023-06-22T13:12:28;97915.56;;;33.23;36.34
21300;BME280;10809;49.476;11.016;2023-06-22T13:14:59;97918.31;;;33.23;36.38
21300;BME280;10809;49.476;11.016;2023-06-22T13:17:29;97913.88;;;33.22;36.11
21300;BME280;10809;49.476;11.016;2023-06-22T13:20:00;97921.06;;;33.23;36.32
21300;BME280;10809;49.476;11.016;2023-06-22T13:22:38;97928.81;;;33.26;36.12